<?xml version="1.0" encoding="UTF-8" standalone="no" ?>
<gpx xmlns="http://www.topografix.com/GPX/1/1" xmlns:xsi="http://www.w3.org/2001/XMLSchema-instance" xsi:schemaLocation="http://www.topografix.com/GPX/1/1 http://www.topografix.com/GPX/1/1/gpx.xsd" version="1.1" creator="VisuGPX - https://www.visugpx.com">
  <metadata>
    <name>rando</name>
    <desc><![CDATA[Tressses --> Pompignac]]></desc>
  </metadata>
  <wpt lat="44.84433" lon="-0.46462">
    <ele>60.69</ele>
    <name><![CDATA[001]]></name>
  </wpt>
  <trk>
    <name><![CDATA[ACTIVE LOG: 05 AVR 2014 16:28]]></name>
    <trkseg>
      <trkpt lat="44.84424" lon="-0.46454">
        <ele>66.47</ele>
        <time>2014-04-05T15:28:41Z</time>
      </trkpt>
      <trkpt lat="44.84415" lon="-0.4644">
        <ele>65.99</ele>
        <time>2014-04-05T15:29:11Z</time>
      </trkpt>
      <trkpt lat="44.84449" lon="-0.46427">
        <ele>65.99</ele>
        <time>2014-04-05T15:29:18Z</time>
      </trkpt>
      <trkpt lat="44.8447" lon="-0.46411">
        <ele>65.03</ele>
        <time>2014-04-05T15:29:34Z</time>
      </trkpt>
      <trkpt lat="44.84479" lon="-0.46397">
        <ele>65.03</ele>
        <time>2014-04-05T15:29:42Z</time>
      </trkpt>
      <trkpt lat="44.84479" lon="-0.46374">
        <ele>64.55</ele>
        <time>2014-04-05T15:29:57Z</time>
      </trkpt>
      <trkpt lat="44.84476" lon="-0.46368">
        <ele>64.07</ele>
        <time>2014-04-05T15:30:02Z</time>
      </trkpt>
      <trkpt lat="44.84481" lon="-0.46354">
        <ele>63.58</ele>
        <time>2014-04-05T15:30:12Z</time>
      </trkpt>
      <trkpt lat="44.84488" lon="-0.46349">
        <ele>63.1</ele>
        <time>2014-04-05T15:30:21Z</time>
      </trkpt>
      <trkpt lat="44.84515" lon="-0.46339">
        <ele>62.14</ele>
        <time>2014-04-05T15:30:40Z</time>
      </trkpt>
      <trkpt lat="44.84537" lon="-0.46331">
        <ele>61.18</ele>
        <time>2014-04-05T15:30:57Z</time>
      </trkpt>
      <trkpt lat="44.84556" lon="-0.46324">
        <ele>60.7</ele>
        <time>2014-04-05T15:31:12Z</time>
      </trkpt>
      <trkpt lat="44.84563" lon="-0.46321">
        <ele>60.22</ele>
        <time>2014-04-05T15:31:18Z</time>
      </trkpt>
      <trkpt lat="44.8459" lon="-0.46312">
        <ele>59.26</ele>
        <time>2014-04-05T15:31:35Z</time>
      </trkpt>
      <trkpt lat="44.84614" lon="-0.46301">
        <ele>58.3</ele>
        <time>2014-04-05T15:31:55Z</time>
      </trkpt>
      <trkpt lat="44.84627" lon="-0.46272">
        <ele>58.3</ele>
        <time>2014-04-05T15:32:10Z</time>
      </trkpt>
      <trkpt lat="44.84625" lon="-0.46241">
        <ele>58.3</ele>
        <time>2014-04-05T15:32:23Z</time>
      </trkpt>
      <trkpt lat="44.84632" lon="-0.46232">
        <ele>58.3</ele>
        <time>2014-04-05T15:32:37Z</time>
      </trkpt>
      <trkpt lat="44.84642" lon="-0.46227">
        <ele>58.78</ele>
        <time>2014-04-05T15:32:45Z</time>
      </trkpt>
      <trkpt lat="44.84668" lon="-0.46216">
        <ele>59.74</ele>
        <time>2014-04-05T15:33:03Z</time>
      </trkpt>
      <trkpt lat="44.84698" lon="-0.462">
        <ele>62.14</ele>
        <time>2014-04-05T15:33:25Z</time>
      </trkpt>
      <trkpt lat="44.84721" lon="-0.4619">
        <ele>63.1</ele>
        <time>2014-04-05T15:33:40Z</time>
      </trkpt>
      <trkpt lat="44.84743" lon="-0.46187">
        <ele>64.07</ele>
        <time>2014-04-05T15:33:55Z</time>
      </trkpt>
      <trkpt lat="44.84765" lon="-0.46187">
        <ele>64.55</ele>
        <time>2014-04-05T15:34:11Z</time>
      </trkpt>
      <trkpt lat="44.84786" lon="-0.46184">
        <ele>65.03</ele>
        <time>2014-04-05T15:34:25Z</time>
      </trkpt>
      <trkpt lat="44.84795" lon="-0.46175">
        <ele>65.51</ele>
        <time>2014-04-05T15:34:32Z</time>
      </trkpt>
      <trkpt lat="44.848" lon="-0.46173">
        <ele>65.51</ele>
        <time>2014-04-05T15:34:36Z</time>
      </trkpt>
      <trkpt lat="44.84803" lon="-0.46151">
        <ele>65.03</ele>
        <time>2014-04-05T15:34:46Z</time>
      </trkpt>
      <trkpt lat="44.84796" lon="-0.46136">
        <ele>65.51</ele>
        <time>2014-04-05T15:34:54Z</time>
      </trkpt>
      <trkpt lat="44.84785" lon="-0.46097">
        <ele>66.95</ele>
        <time>2014-04-05T15:35:12Z</time>
      </trkpt>
      <trkpt lat="44.84778" lon="-0.46074">
        <ele>67.43</ele>
        <time>2014-04-05T15:35:26Z</time>
      </trkpt>
      <trkpt lat="44.84774" lon="-0.46043">
        <ele>67.43</ele>
        <time>2014-04-05T15:35:42Z</time>
      </trkpt>
      <trkpt lat="44.8477" lon="-0.45985">
        <ele>67.91</ele>
        <time>2014-04-05T15:36:08Z</time>
      </trkpt>
      <trkpt lat="44.84764" lon="-0.45938">
        <ele>68.87</ele>
        <time>2014-04-05T15:36:31Z</time>
      </trkpt>
      <trkpt lat="44.84756" lon="-0.45908">
        <ele>69.35</ele>
        <time>2014-04-05T15:36:48Z</time>
      </trkpt>
      <trkpt lat="44.84752" lon="-0.4587">
        <ele>69.83</ele>
        <time>2014-04-05T15:37:07Z</time>
      </trkpt>
      <trkpt lat="44.8475" lon="-0.45826">
        <ele>70.31</ele>
        <time>2014-04-05T15:37:28Z</time>
      </trkpt>
      <trkpt lat="44.8475" lon="-0.45787">
        <ele>71.27</ele>
        <time>2014-04-05T15:37:43Z</time>
      </trkpt>
      <trkpt lat="44.8475" lon="-0.45759">
        <ele>73.2</ele>
        <time>2014-04-05T15:37:58Z</time>
      </trkpt>
      <trkpt lat="44.8475" lon="-0.45724">
        <ele>75.12</ele>
        <time>2014-04-05T15:38:15Z</time>
      </trkpt>
      <trkpt lat="44.84752" lon="-0.45688">
        <ele>77.04</ele>
        <time>2014-04-05T15:38:33Z</time>
      </trkpt>
      <trkpt lat="44.84748" lon="-0.45653">
        <ele>78.97</ele>
        <time>2014-04-05T15:38:53Z</time>
      </trkpt>
      <trkpt lat="44.84748" lon="-0.45625">
        <ele>79.93</ele>
        <time>2014-04-05T15:39:09Z</time>
      </trkpt>
      <trkpt lat="44.8475" lon="-0.45606">
        <ele>79.93</ele>
        <time>2014-04-05T15:39:18Z</time>
      </trkpt>
      <trkpt lat="44.84749" lon="-0.456">
        <ele>79.93</ele>
        <time>2014-04-05T15:39:21Z</time>
      </trkpt>
      <trkpt lat="44.84751" lon="-0.45567">
        <ele>81.37</ele>
        <time>2014-04-05T15:39:38Z</time>
      </trkpt>
      <trkpt lat="44.84753" lon="-0.45529">
        <ele>81.85</ele>
        <time>2014-04-05T15:39:55Z</time>
      </trkpt>
      <trkpt lat="44.84755" lon="-0.45494">
        <ele>82.33</ele>
        <time>2014-04-05T15:40:11Z</time>
      </trkpt>
      <trkpt lat="44.84757" lon="-0.45452">
        <ele>81.85</ele>
        <time>2014-04-05T15:40:31Z</time>
      </trkpt>
      <trkpt lat="44.84767" lon="-0.45418">
        <ele>81.85</ele>
        <time>2014-04-05T15:40:50Z</time>
      </trkpt>
      <trkpt lat="44.84778" lon="-0.45381">
        <ele>81.37</ele>
        <time>2014-04-05T15:41:09Z</time>
      </trkpt>
      <trkpt lat="44.84788" lon="-0.45348">
        <ele>81.37</ele>
        <time>2014-04-05T15:41:24Z</time>
      </trkpt>
      <trkpt lat="44.84799" lon="-0.45321">
        <ele>81.37</ele>
        <time>2014-04-05T15:41:37Z</time>
      </trkpt>
      <trkpt lat="44.84804" lon="-0.45299">
        <ele>81.37</ele>
        <time>2014-04-05T15:41:50Z</time>
      </trkpt>
      <trkpt lat="44.84814" lon="-0.4526">
        <ele>80.89</ele>
        <time>2014-04-05T15:42:09Z</time>
      </trkpt>
      <trkpt lat="44.84826" lon="-0.45234">
        <ele>81.37</ele>
        <time>2014-04-05T15:42:24Z</time>
      </trkpt>
      <trkpt lat="44.84831" lon="-0.45221">
        <ele>81.37</ele>
        <time>2014-04-05T15:42:34Z</time>
      </trkpt>
      <trkpt lat="44.84841" lon="-0.45195">
        <ele>81.37</ele>
        <time>2014-04-05T15:42:47Z</time>
      </trkpt>
      <trkpt lat="44.84849" lon="-0.45167">
        <ele>81.37</ele>
        <time>2014-04-05T15:43:04Z</time>
      </trkpt>
      <trkpt lat="44.84859" lon="-0.45131">
        <ele>81.85</ele>
        <time>2014-04-05T15:43:21Z</time>
      </trkpt>
      <trkpt lat="44.84873" lon="-0.45094">
        <ele>81.85</ele>
        <time>2014-04-05T15:43:41Z</time>
      </trkpt>
      <trkpt lat="44.84881" lon="-0.45059">
        <ele>82.33</ele>
        <time>2014-04-05T15:44:00Z</time>
      </trkpt>
      <trkpt lat="44.84887" lon="-0.45035">
        <ele>82.81</ele>
        <time>2014-04-05T15:44:15Z</time>
      </trkpt>
      <trkpt lat="44.84893" lon="-0.45008">
        <ele>83.29</ele>
        <time>2014-04-05T15:44:27Z</time>
      </trkpt>
      <trkpt lat="44.84903" lon="-0.4497">
        <ele>83.29</ele>
        <time>2014-04-05T15:44:46Z</time>
      </trkpt>
      <trkpt lat="44.84915" lon="-0.44929">
        <ele>83.29</ele>
        <time>2014-04-05T15:45:04Z</time>
      </trkpt>
      <trkpt lat="44.84921" lon="-0.44898">
        <ele>83.77</ele>
        <time>2014-04-05T15:45:20Z</time>
      </trkpt>
      <trkpt lat="44.8493" lon="-0.4486">
        <ele>83.77</ele>
        <time>2014-04-05T15:45:40Z</time>
      </trkpt>
      <trkpt lat="44.84937" lon="-0.44822">
        <ele>83.77</ele>
        <time>2014-04-05T15:45:59Z</time>
      </trkpt>
      <trkpt lat="44.84937" lon="-0.44783">
        <ele>83.77</ele>
        <time>2014-04-05T15:46:15Z</time>
      </trkpt>
      <trkpt lat="44.84943" lon="-0.44753">
        <ele>83.77</ele>
        <time>2014-04-05T15:46:30Z</time>
      </trkpt>
      <trkpt lat="44.84951" lon="-0.4473">
        <ele>83.29</ele>
        <time>2014-04-05T15:46:44Z</time>
      </trkpt>
      <trkpt lat="44.84963" lon="-0.44696">
        <ele>82.81</ele>
        <time>2014-04-05T15:46:59Z</time>
      </trkpt>
      <trkpt lat="44.8497" lon="-0.44666">
        <ele>81.85</ele>
        <time>2014-04-05T15:47:15Z</time>
      </trkpt>
      <trkpt lat="44.84978" lon="-0.44638">
        <ele>81.37</ele>
        <time>2014-04-05T15:47:30Z</time>
      </trkpt>
      <trkpt lat="44.84984" lon="-0.4461">
        <ele>80.89</ele>
        <time>2014-04-05T15:47:42Z</time>
      </trkpt>
      <trkpt lat="44.84993" lon="-0.44576">
        <ele>80.41</ele>
        <time>2014-04-05T15:47:57Z</time>
      </trkpt>
      <trkpt lat="44.84998" lon="-0.44553">
        <ele>80.41</ele>
        <time>2014-04-05T15:48:10Z</time>
      </trkpt>
      <trkpt lat="44.85011" lon="-0.44522">
        <ele>79.93</ele>
        <time>2014-04-05T15:48:27Z</time>
      </trkpt>
      <trkpt lat="44.85012" lon="-0.44498">
        <ele>79.45</ele>
        <time>2014-04-05T15:48:35Z</time>
      </trkpt>
      <trkpt lat="44.85011" lon="-0.44473">
        <ele>79.45</ele>
        <time>2014-04-05T15:48:48Z</time>
      </trkpt>
      <trkpt lat="44.85012" lon="-0.4444">
        <ele>79.45</ele>
        <time>2014-04-05T15:49:04Z</time>
      </trkpt>
      <trkpt lat="44.85011" lon="-0.44411">
        <ele>78.97</ele>
        <time>2014-04-05T15:49:17Z</time>
      </trkpt>
      <trkpt lat="44.85006" lon="-0.4438">
        <ele>78</ele>
        <time>2014-04-05T15:49:36Z</time>
      </trkpt>
      <trkpt lat="44.85005" lon="-0.44358">
        <ele>78</ele>
        <time>2014-04-05T15:49:46Z</time>
      </trkpt>
      <trkpt lat="44.85001" lon="-0.44344">
        <ele>77.52</ele>
        <time>2014-04-05T15:49:52Z</time>
      </trkpt>
      <trkpt lat="44.84985" lon="-0.44308">
        <ele>76.56</ele>
        <time>2014-04-05T15:50:11Z</time>
      </trkpt>
      <trkpt lat="44.84977" lon="-0.4426">
        <ele>75.6</ele>
        <time>2014-04-05T15:50:31Z</time>
      </trkpt>
      <trkpt lat="44.84965" lon="-0.44227">
        <ele>75.12</ele>
        <time>2014-04-05T15:50:50Z</time>
      </trkpt>
      <trkpt lat="44.8494" lon="-0.44196">
        <ele>73.68</ele>
        <time>2014-04-05T15:51:10Z</time>
      </trkpt>
      <trkpt lat="44.8493" lon="-0.4418">
        <ele>73.2</ele>
        <time>2014-04-05T15:51:22Z</time>
      </trkpt>
      <trkpt lat="44.8491" lon="-0.4415">
        <ele>72.72</ele>
        <time>2014-04-05T15:51:41Z</time>
      </trkpt>
      <trkpt lat="44.84892" lon="-0.44133">
        <ele>70.79</ele>
        <time>2014-04-05T15:51:55Z</time>
      </trkpt>
      <trkpt lat="44.84878" lon="-0.44102">
        <ele>71.76</ele>
        <time>2014-04-05T15:52:13Z</time>
      </trkpt>
      <trkpt lat="44.84869" lon="-0.44075">
        <ele>72.24</ele>
        <time>2014-04-05T15:52:27Z</time>
      </trkpt>
      <trkpt lat="44.84857" lon="-0.44039">
        <ele>71.76</ele>
        <time>2014-04-05T15:52:43Z</time>
      </trkpt>
      <trkpt lat="44.84843" lon="-0.44004">
        <ele>70.79</ele>
        <time>2014-04-05T15:53:02Z</time>
      </trkpt>
      <trkpt lat="44.84838" lon="-0.43988">
        <ele>70.31</ele>
        <time>2014-04-05T15:53:11Z</time>
      </trkpt>
      <trkpt lat="44.84833" lon="-0.43967">
        <ele>69.35</ele>
        <time>2014-04-05T15:53:24Z</time>
      </trkpt>
      <trkpt lat="44.84829" lon="-0.43961">
        <ele>68.87</ele>
        <time>2014-04-05T15:53:29Z</time>
      </trkpt>
      <trkpt lat="44.8481" lon="-0.43939">
        <ele>67.43</ele>
        <time>2014-04-05T15:53:45Z</time>
      </trkpt>
      <trkpt lat="44.84788" lon="-0.4391">
        <ele>66.47</ele>
        <time>2014-04-05T15:54:02Z</time>
      </trkpt>
      <trkpt lat="44.84765" lon="-0.4388">
        <ele>65.03</ele>
        <time>2014-04-05T15:54:21Z</time>
      </trkpt>
      <trkpt lat="44.84741" lon="-0.43866">
        <ele>63.58</ele>
        <time>2014-04-05T15:54:40Z</time>
      </trkpt>
      <trkpt lat="44.84737" lon="-0.4386">
        <ele>63.1</ele>
        <time>2014-04-05T15:54:46Z</time>
      </trkpt>
      <trkpt lat="44.84726" lon="-0.43834">
        <ele>61.66</ele>
        <time>2014-04-05T15:54:59Z</time>
      </trkpt>
      <trkpt lat="44.84717" lon="-0.43796">
        <ele>59.74</ele>
        <time>2014-04-05T15:55:20Z</time>
      </trkpt>
      <trkpt lat="44.84713" lon="-0.43778">
        <ele>59.26</ele>
        <time>2014-04-05T15:55:30Z</time>
      </trkpt>
      <trkpt lat="44.8471" lon="-0.43777">
        <ele>59.26</ele>
        <time>2014-04-05T15:55:32Z</time>
      </trkpt>
      <trkpt lat="44.84706" lon="-0.43776">
        <ele>58.78</ele>
        <time>2014-04-05T15:55:37Z</time>
      </trkpt>
      <trkpt lat="44.84693" lon="-0.43783">
        <ele>58.3</ele>
        <time>2014-04-05T15:55:49Z</time>
      </trkpt>
      <trkpt lat="44.84671" lon="-0.43795">
        <ele>57.82</ele>
        <time>2014-04-05T15:56:02Z</time>
      </trkpt>
      <trkpt lat="44.84643" lon="-0.43803">
        <ele>55.41</ele>
        <time>2014-04-05T15:56:19Z</time>
      </trkpt>
      <trkpt lat="44.84617" lon="-0.43813">
        <ele>53.97</ele>
        <time>2014-04-05T15:56:36Z</time>
      </trkpt>
      <trkpt lat="44.84594" lon="-0.43822">
        <ele>53.97</ele>
        <time>2014-04-05T15:56:56Z</time>
      </trkpt>
      <trkpt lat="44.84593" lon="-0.43822">
        <ele>53.97</ele>
        <time>2014-04-05T15:56:57Z</time>
      </trkpt>
      <trkpt lat="44.84566" lon="-0.43796">
        <ele>53.01</ele>
        <time>2014-04-05T15:57:17Z</time>
      </trkpt>
      <trkpt lat="44.84548" lon="-0.43759">
        <ele>52.05</ele>
        <time>2014-04-05T15:57:37Z</time>
      </trkpt>
      <trkpt lat="44.84533" lon="-0.43731">
        <ele>51.57</ele>
        <time>2014-04-05T15:57:53Z</time>
      </trkpt>
      <trkpt lat="44.84519" lon="-0.43702">
        <ele>51.09</ele>
        <time>2014-04-05T15:58:10Z</time>
      </trkpt>
      <trkpt lat="44.84507" lon="-0.43676">
        <ele>50.13</ele>
        <time>2014-04-05T15:58:26Z</time>
      </trkpt>
      <trkpt lat="44.84491" lon="-0.43643">
        <ele>48.2</ele>
        <time>2014-04-05T15:58:43Z</time>
      </trkpt>
      <trkpt lat="44.84474" lon="-0.43612">
        <ele>47.24</ele>
        <time>2014-04-05T15:59:03Z</time>
      </trkpt>
      <trkpt lat="44.8446" lon="-0.43577">
        <ele>48.2</ele>
        <time>2014-04-05T15:59:21Z</time>
      </trkpt>
      <trkpt lat="44.84448" lon="-0.43554">
        <ele>49.16</ele>
        <time>2014-04-05T15:59:32Z</time>
      </trkpt>
      <trkpt lat="44.84441" lon="-0.4354">
        <ele>51.57</ele>
        <time>2014-04-05T15:59:43Z</time>
      </trkpt>
      <trkpt lat="44.84426" lon="-0.43512">
        <ele>54.45</ele>
        <time>2014-04-05T16:00:00Z</time>
      </trkpt>
      <trkpt lat="44.84413" lon="-0.43482">
        <ele>57.82</ele>
        <time>2014-04-05T16:00:19Z</time>
      </trkpt>
      <trkpt lat="44.84402" lon="-0.4347">
        <ele>59.74</ele>
        <time>2014-04-05T16:00:34Z</time>
      </trkpt>
      <trkpt lat="44.84372" lon="-0.43474">
        <ele>62.14</ele>
        <time>2014-04-05T16:00:55Z</time>
      </trkpt>
      <trkpt lat="44.84344" lon="-0.43483">
        <ele>63.58</ele>
        <time>2014-04-05T16:01:12Z</time>
      </trkpt>
      <trkpt lat="44.84323" lon="-0.4349">
        <ele>64.07</ele>
        <time>2014-04-05T16:01:25Z</time>
      </trkpt>
      <trkpt lat="44.84321" lon="-0.43492">
        <ele>64.07</ele>
        <time>2014-04-05T16:01:27Z</time>
      </trkpt>
      <trkpt lat="44.84318" lon="-0.43498">
        <ele>64.07</ele>
        <time>2014-04-05T16:01:34Z</time>
      </trkpt>
      <trkpt lat="44.84314" lon="-0.43506">
        <ele>64.07</ele>
        <time>2014-04-05T16:01:39Z</time>
      </trkpt>
      <trkpt lat="44.84312" lon="-0.43516">
        <ele>63.1</ele>
        <time>2014-04-05T16:01:53Z</time>
      </trkpt>
      <trkpt lat="44.84314" lon="-0.43513">
        <ele>63.58</ele>
        <time>2014-04-05T16:01:57Z</time>
      </trkpt>
      <trkpt lat="44.8433" lon="-0.43494">
        <ele>64.07</ele>
        <time>2014-04-05T16:02:10Z</time>
      </trkpt>
      <trkpt lat="44.84342" lon="-0.43492">
        <ele>64.07</ele>
        <time>2014-04-05T16:02:22Z</time>
      </trkpt>
      <trkpt lat="44.84364" lon="-0.43483">
        <ele>63.1</ele>
        <time>2014-04-05T16:02:38Z</time>
      </trkpt>
      <trkpt lat="44.844" lon="-0.43468">
        <ele>60.22</ele>
        <time>2014-04-05T16:03:02Z</time>
      </trkpt>
      <trkpt lat="44.84418" lon="-0.43494">
        <ele>58.3</ele>
        <time>2014-04-05T16:03:19Z</time>
      </trkpt>
      <trkpt lat="44.84424" lon="-0.43521">
        <ele>56.37</ele>
        <time>2014-04-05T16:03:30Z</time>
      </trkpt>
      <trkpt lat="44.84437" lon="-0.4354">
        <ele>53.49</ele>
        <time>2014-04-05T16:03:45Z</time>
      </trkpt>
      <trkpt lat="44.84445" lon="-0.43552">
        <ele>51.09</ele>
        <time>2014-04-05T16:03:57Z</time>
      </trkpt>
      <trkpt lat="44.84459" lon="-0.4359">
        <ele>48.2</ele>
        <time>2014-04-05T16:04:14Z</time>
      </trkpt>
      <trkpt lat="44.84478" lon="-0.43621">
        <ele>46.76</ele>
        <time>2014-04-05T16:04:34Z</time>
      </trkpt>
      <trkpt lat="44.84493" lon="-0.43659">
        <ele>47.24</ele>
        <time>2014-04-05T16:04:55Z</time>
      </trkpt>
      <trkpt lat="44.84507" lon="-0.43683">
        <ele>49.16</ele>
        <time>2014-04-05T16:05:08Z</time>
      </trkpt>
      <trkpt lat="44.84521" lon="-0.43718">
        <ele>50.61</ele>
        <time>2014-04-05T16:05:27Z</time>
      </trkpt>
      <trkpt lat="44.84533" lon="-0.43738">
        <ele>50.61</ele>
        <time>2014-04-05T16:05:42Z</time>
      </trkpt>
      <trkpt lat="44.84548" lon="-0.43768">
        <ele>51.09</ele>
        <time>2014-04-05T16:05:58Z</time>
      </trkpt>
      <trkpt lat="44.84566" lon="-0.43806">
        <ele>52.53</ele>
        <time>2014-04-05T16:06:19Z</time>
      </trkpt>
      <trkpt lat="44.84585" lon="-0.43825">
        <ele>53.01</ele>
        <time>2014-04-05T16:06:34Z</time>
      </trkpt>
      <trkpt lat="44.84617" lon="-0.43814">
        <ele>53.01</ele>
        <time>2014-04-05T16:06:55Z</time>
      </trkpt>
      <trkpt lat="44.84621" lon="-0.43812">
        <ele>53.01</ele>
        <time>2014-04-05T16:06:59Z</time>
      </trkpt>
      <trkpt lat="44.84651" lon="-0.43803">
        <ele>54.45</ele>
        <time>2014-04-05T16:07:19Z</time>
      </trkpt>
      <trkpt lat="44.84667" lon="-0.43796">
        <ele>56.37</ele>
        <time>2014-04-05T16:07:33Z</time>
      </trkpt>
      <trkpt lat="44.84689" lon="-0.4379">
        <ele>57.82</ele>
        <time>2014-04-05T16:07:46Z</time>
      </trkpt>
      <trkpt lat="44.84707" lon="-0.43772">
        <ele>58.3</ele>
        <time>2014-04-05T16:07:58Z</time>
      </trkpt>
      <trkpt lat="44.8471" lon="-0.43774">
        <ele>58.3</ele>
        <time>2014-04-05T16:08:05Z</time>
      </trkpt>
      <trkpt lat="44.8471" lon="-0.43784">
        <ele>58.78</ele>
        <time>2014-04-05T16:08:11Z</time>
      </trkpt>
      <trkpt lat="44.84714" lon="-0.4382">
        <ele>59.74</ele>
        <time>2014-04-05T16:08:29Z</time>
      </trkpt>
      <trkpt lat="44.84722" lon="-0.43842">
        <ele>60.7</ele>
        <time>2014-04-05T16:08:39Z</time>
      </trkpt>
      <trkpt lat="44.84742" lon="-0.43864">
        <ele>62.62</ele>
        <time>2014-04-05T16:08:55Z</time>
      </trkpt>
      <trkpt lat="44.84761" lon="-0.43878">
        <ele>63.58</ele>
        <time>2014-04-05T16:09:10Z</time>
      </trkpt>
      <trkpt lat="44.84774" lon="-0.439">
        <ele>65.51</ele>
        <time>2014-04-05T16:09:27Z</time>
      </trkpt>
      <trkpt lat="44.84794" lon="-0.43925">
        <ele>66.47</ele>
        <time>2014-04-05T16:09:40Z</time>
      </trkpt>
      <trkpt lat="44.84805" lon="-0.43932">
        <ele>66.95</ele>
        <time>2014-04-05T16:09:52Z</time>
      </trkpt>
      <trkpt lat="44.84809" lon="-0.43936">
        <ele>66.95</ele>
        <time>2014-04-05T16:09:56Z</time>
      </trkpt>
      <trkpt lat="44.84828" lon="-0.43962">
        <ele>68.39</ele>
        <time>2014-04-05T16:10:09Z</time>
      </trkpt>
      <trkpt lat="44.84835" lon="-0.43981">
        <ele>69.35</ele>
        <time>2014-04-05T16:10:21Z</time>
      </trkpt>
      <trkpt lat="44.84842" lon="-0.44006">
        <ele>70.31</ele>
        <time>2014-04-05T16:10:34Z</time>
      </trkpt>
      <trkpt lat="44.84856" lon="-0.44044">
        <ele>71.27</ele>
        <time>2014-04-05T16:10:56Z</time>
      </trkpt>
      <trkpt lat="44.84863" lon="-0.44066">
        <ele>71.76</ele>
        <time>2014-04-05T16:11:10Z</time>
      </trkpt>
      <trkpt lat="44.8487" lon="-0.44106">
        <ele>71.76</ele>
        <time>2014-04-05T16:11:24Z</time>
      </trkpt>
      <trkpt lat="44.84882" lon="-0.44131">
        <ele>71.76</ele>
        <time>2014-04-05T16:11:36Z</time>
      </trkpt>
      <trkpt lat="44.84896" lon="-0.44146">
        <ele>70.79</ele>
        <time>2014-04-05T16:11:48Z</time>
      </trkpt>
      <trkpt lat="44.84901" lon="-0.44149">
        <ele>70.79</ele>
        <time>2014-04-05T16:11:52Z</time>
      </trkpt>
      <trkpt lat="44.84917" lon="-0.44172">
        <ele>72.24</ele>
        <time>2014-04-05T16:12:04Z</time>
      </trkpt>
      <trkpt lat="44.84924" lon="-0.4418">
        <ele>72.24</ele>
        <time>2014-04-05T16:12:11Z</time>
      </trkpt>
      <trkpt lat="44.84937" lon="-0.44196">
        <ele>72.72</ele>
        <time>2014-04-05T16:12:26Z</time>
      </trkpt>
      <trkpt lat="44.84958" lon="-0.44219">
        <ele>73.68</ele>
        <time>2014-04-05T16:12:42Z</time>
      </trkpt>
      <trkpt lat="44.84973" lon="-0.44253">
        <ele>74.64</ele>
        <time>2014-04-05T16:13:02Z</time>
      </trkpt>
      <trkpt lat="44.84977" lon="-0.44291">
        <ele>75.6</ele>
        <time>2014-04-05T16:13:19Z</time>
      </trkpt>
      <trkpt lat="44.84986" lon="-0.44319">
        <ele>76.56</ele>
        <time>2014-04-05T16:13:32Z</time>
      </trkpt>
      <trkpt lat="44.85002" lon="-0.44355">
        <ele>77.52</ele>
        <time>2014-04-05T16:13:55Z</time>
      </trkpt>
      <trkpt lat="44.85007" lon="-0.4441">
        <ele>78.48</ele>
        <time>2014-04-05T16:14:23Z</time>
      </trkpt>
      <trkpt lat="44.85009" lon="-0.44459">
        <ele>79.45</ele>
        <time>2014-04-05T16:14:48Z</time>
      </trkpt>
      <trkpt lat="44.85009" lon="-0.44499">
        <ele>79.45</ele>
        <time>2014-04-05T16:15:07Z</time>
      </trkpt>
      <trkpt lat="44.85001" lon="-0.44532">
        <ele>79.93</ele>
        <time>2014-04-05T16:15:23Z</time>
      </trkpt>
      <trkpt lat="44.84991" lon="-0.44566">
        <ele>80.41</ele>
        <time>2014-04-05T16:15:42Z</time>
      </trkpt>
      <trkpt lat="44.84979" lon="-0.44606">
        <ele>80.89</ele>
        <time>2014-04-05T16:16:00Z</time>
      </trkpt>
      <trkpt lat="44.84967" lon="-0.44645">
        <ele>81.37</ele>
        <time>2014-04-05T16:16:20Z</time>
      </trkpt>
      <trkpt lat="44.84958" lon="-0.44668">
        <ele>81.85</ele>
        <time>2014-04-05T16:16:36Z</time>
      </trkpt>
      <trkpt lat="44.84945" lon="-0.44714">
        <ele>83.29</ele>
        <time>2014-04-05T16:16:57Z</time>
      </trkpt>
      <trkpt lat="44.84939" lon="-0.44745">
        <ele>83.77</ele>
        <time>2014-04-05T16:17:13Z</time>
      </trkpt>
      <trkpt lat="44.84931" lon="-0.4477">
        <ele>83.77</ele>
        <time>2014-04-05T16:17:27Z</time>
      </trkpt>
      <trkpt lat="44.8493" lon="-0.44789">
        <ele>83.77</ele>
        <time>2014-04-05T16:17:35Z</time>
      </trkpt>
      <trkpt lat="44.84926" lon="-0.44829">
        <ele>83.77</ele>
        <time>2014-04-05T16:17:53Z</time>
      </trkpt>
      <trkpt lat="44.8492" lon="-0.44857">
        <ele>83.77</ele>
        <time>2014-04-05T16:18:08Z</time>
      </trkpt>
      <trkpt lat="44.84914" lon="-0.44891">
        <ele>83.77</ele>
        <time>2014-04-05T16:18:26Z</time>
      </trkpt>
      <trkpt lat="44.84904" lon="-0.44925">
        <ele>83.29</ele>
        <time>2014-04-05T16:18:42Z</time>
      </trkpt>
      <trkpt lat="44.84896" lon="-0.44952">
        <ele>83.29</ele>
        <time>2014-04-05T16:18:57Z</time>
      </trkpt>
      <trkpt lat="44.8489" lon="-0.44984">
        <ele>83.29</ele>
        <time>2014-04-05T16:19:13Z</time>
      </trkpt>
      <trkpt lat="44.84878" lon="-0.45027">
        <ele>82.81</ele>
        <time>2014-04-05T16:19:35Z</time>
      </trkpt>
      <trkpt lat="44.84866" lon="-0.45064">
        <ele>81.85</ele>
        <time>2014-04-05T16:19:54Z</time>
      </trkpt>
      <trkpt lat="44.84854" lon="-0.451">
        <ele>81.85</ele>
        <time>2014-04-05T16:20:11Z</time>
      </trkpt>
      <trkpt lat="44.84847" lon="-0.4513">
        <ele>81.37</ele>
        <time>2014-04-05T16:20:29Z</time>
      </trkpt>
      <trkpt lat="44.84834" lon="-0.45166">
        <ele>81.37</ele>
        <time>2014-04-05T16:20:45Z</time>
      </trkpt>
      <trkpt lat="44.84827" lon="-0.45192">
        <ele>81.37</ele>
        <time>2014-04-05T16:20:58Z</time>
      </trkpt>
      <trkpt lat="44.84815" lon="-0.45222">
        <ele>80.89</ele>
        <time>2014-04-05T16:21:15Z</time>
      </trkpt>
      <trkpt lat="44.84801" lon="-0.4527">
        <ele>81.37</ele>
        <time>2014-04-05T16:21:38Z</time>
      </trkpt>
      <trkpt lat="44.84795" lon="-0.45294">
        <ele>80.89</ele>
        <time>2014-04-05T16:21:51Z</time>
      </trkpt>
      <trkpt lat="44.84791" lon="-0.45312">
        <ele>80.89</ele>
        <time>2014-04-05T16:22:03Z</time>
      </trkpt>
      <trkpt lat="44.84788" lon="-0.45316">
        <ele>80.89</ele>
        <time>2014-04-05T16:22:07Z</time>
      </trkpt>
      <trkpt lat="44.84774" lon="-0.45356">
        <ele>80.89</ele>
        <time>2014-04-05T16:22:22Z</time>
      </trkpt>
      <trkpt lat="44.84764" lon="-0.45377">
        <ele>80.89</ele>
        <time>2014-04-05T16:22:31Z</time>
      </trkpt>
      <trkpt lat="44.84762" lon="-0.45394">
        <ele>80.89</ele>
        <time>2014-04-05T16:22:43Z</time>
      </trkpt>
      <trkpt lat="44.84759" lon="-0.45416">
        <ele>81.37</ele>
        <time>2014-04-05T16:22:56Z</time>
      </trkpt>
      <trkpt lat="44.8475" lon="-0.45448">
        <ele>81.37</ele>
        <time>2014-04-05T16:23:14Z</time>
      </trkpt>
      <trkpt lat="44.84749" lon="-0.45496">
        <ele>81.37</ele>
        <time>2014-04-05T16:23:33Z</time>
      </trkpt>
      <trkpt lat="44.84745" lon="-0.45534">
        <ele>81.37</ele>
        <time>2014-04-05T16:23:51Z</time>
      </trkpt>
      <trkpt lat="44.84746" lon="-0.45553">
        <ele>81.37</ele>
        <time>2014-04-05T16:24:02Z</time>
      </trkpt>
      <trkpt lat="44.84747" lon="-0.45606">
        <ele>79.93</ele>
        <time>2014-04-05T16:24:16Z</time>
      </trkpt>
      <trkpt lat="44.84743" lon="-0.45646">
        <ele>78.97</ele>
        <time>2014-04-05T16:24:27Z</time>
      </trkpt>
      <trkpt lat="44.84741" lon="-0.45675">
        <ele>78</ele>
        <time>2014-04-05T16:24:35Z</time>
      </trkpt>
      <trkpt lat="44.84737" lon="-0.45704">
        <ele>77.04</ele>
        <time>2014-04-05T16:24:43Z</time>
      </trkpt>
      <trkpt lat="44.84739" lon="-0.45771">
        <ele>74.16</ele>
        <time>2014-04-05T16:25:02Z</time>
      </trkpt>
      <trkpt lat="44.84739" lon="-0.45803">
        <ele>72.24</ele>
        <time>2014-04-05T16:25:11Z</time>
      </trkpt>
      <trkpt lat="44.84734" lon="-0.45832">
        <ele>70.31</ele>
        <time>2014-04-05T16:25:21Z</time>
      </trkpt>
      <trkpt lat="44.84728" lon="-0.45837">
        <ele>69.83</ele>
        <time>2014-04-05T16:25:24Z</time>
      </trkpt>
      <trkpt lat="44.84694" lon="-0.4586">
        <ele>68.39</ele>
        <time>2014-04-05T16:25:40Z</time>
      </trkpt>
      <trkpt lat="44.84676" lon="-0.45871">
        <ele>67.91</ele>
        <time>2014-04-05T16:25:48Z</time>
      </trkpt>
      <trkpt lat="44.84649" lon="-0.45883">
        <ele>66.95</ele>
        <time>2014-04-05T16:26:00Z</time>
      </trkpt>
      <trkpt lat="44.84625" lon="-0.45896">
        <ele>65.51</ele>
        <time>2014-04-05T16:26:10Z</time>
      </trkpt>
      <trkpt lat="44.84599" lon="-0.4591">
        <ele>63.1</ele>
        <time>2014-04-05T16:26:22Z</time>
      </trkpt>
      <trkpt lat="44.8458" lon="-0.45923">
        <ele>61.66</ele>
        <time>2014-04-05T16:26:31Z</time>
      </trkpt>
      <trkpt lat="44.84559" lon="-0.45939">
        <ele>61.18</ele>
        <time>2014-04-05T16:26:41Z</time>
      </trkpt>
      <trkpt lat="44.84537" lon="-0.45952">
        <ele>61.66</ele>
        <time>2014-04-05T16:26:55Z</time>
      </trkpt>
      <trkpt lat="44.84535" lon="-0.45947">
        <ele>62.14</ele>
        <time>2014-04-05T16:26:57Z</time>
      </trkpt>
      <trkpt lat="44.84524" lon="-0.45918">
        <ele>62.62</ele>
        <time>2014-04-05T16:27:07Z</time>
      </trkpt>
      <trkpt lat="44.84506" lon="-0.45874">
        <ele>63.58</ele>
        <time>2014-04-05T16:27:22Z</time>
      </trkpt>
      <trkpt lat="44.84483" lon="-0.45831">
        <ele>64.55</ele>
        <time>2014-04-05T16:27:39Z</time>
      </trkpt>
      <trkpt lat="44.84461" lon="-0.45789">
        <ele>65.03</ele>
        <time>2014-04-05T16:27:55Z</time>
      </trkpt>
      <trkpt lat="44.8444" lon="-0.45748">
        <ele>66.47</ele>
        <time>2014-04-05T16:28:11Z</time>
      </trkpt>
      <trkpt lat="44.84424" lon="-0.45703">
        <ele>66.95</ele>
        <time>2014-04-05T16:28:26Z</time>
      </trkpt>
      <trkpt lat="44.84407" lon="-0.45658">
        <ele>67.91</ele>
        <time>2014-04-05T16:28:41Z</time>
      </trkpt>
      <trkpt lat="44.84387" lon="-0.45611">
        <ele>68.87</ele>
        <time>2014-04-05T16:28:57Z</time>
      </trkpt>
      <trkpt lat="44.84367" lon="-0.45569">
        <ele>70.31</ele>
        <time>2014-04-05T16:29:13Z</time>
      </trkpt>
      <trkpt lat="44.84341" lon="-0.45536">
        <ele>71.76</ele>
        <time>2014-04-05T16:29:29Z</time>
      </trkpt>
      <trkpt lat="44.84323" lon="-0.45505">
        <ele>73.2</ele>
        <time>2014-04-05T16:29:42Z</time>
      </trkpt>
      <trkpt lat="44.843" lon="-0.45465">
        <ele>75.12</ele>
        <time>2014-04-05T16:29:58Z</time>
      </trkpt>
      <trkpt lat="44.84283" lon="-0.45433">
        <ele>76.56</ele>
        <time>2014-04-05T16:30:11Z</time>
      </trkpt>
      <trkpt lat="44.84267" lon="-0.45412">
        <ele>78</ele>
        <time>2014-04-05T16:30:21Z</time>
      </trkpt>
      <trkpt lat="44.84239" lon="-0.45416">
        <ele>78.48</ele>
        <time>2014-04-05T16:30:34Z</time>
      </trkpt>
      <trkpt lat="44.84201" lon="-0.45436">
        <ele>79.45</ele>
        <time>2014-04-05T16:30:50Z</time>
      </trkpt>
      <trkpt lat="44.84163" lon="-0.45459">
        <ele>80.89</ele>
        <time>2014-04-05T16:31:07Z</time>
      </trkpt>
      <trkpt lat="44.84133" lon="-0.45477">
        <ele>81.37</ele>
        <time>2014-04-05T16:31:22Z</time>
      </trkpt>
      <trkpt lat="44.84123" lon="-0.45476">
        <ele>81.37</ele>
        <time>2014-04-05T16:31:27Z</time>
      </trkpt>
      <trkpt lat="44.84113" lon="-0.45439">
        <ele>81.85</ele>
        <time>2014-04-05T16:31:41Z</time>
      </trkpt>
      <trkpt lat="44.84107" lon="-0.45397">
        <ele>81.37</ele>
        <time>2014-04-05T16:31:54Z</time>
      </trkpt>
      <trkpt lat="44.84102" lon="-0.45367">
        <ele>81.37</ele>
        <time>2014-04-05T16:32:03Z</time>
      </trkpt>
      <trkpt lat="44.841" lon="-0.45335">
        <ele>80.89</ele>
        <time>2014-04-05T16:32:12Z</time>
      </trkpt>
      <trkpt lat="44.84099" lon="-0.45308">
        <ele>80.41</ele>
        <time>2014-04-05T16:32:20Z</time>
      </trkpt>
      <trkpt lat="44.84099" lon="-0.45281">
        <ele>79.93</ele>
        <time>2014-04-05T16:32:28Z</time>
      </trkpt>
      <trkpt lat="44.84099" lon="-0.45252">
        <ele>79.93</ele>
        <time>2014-04-05T16:32:37Z</time>
      </trkpt>
      <trkpt lat="44.84099" lon="-0.45212">
        <ele>79.45</ele>
        <time>2014-04-05T16:32:49Z</time>
      </trkpt>
      <trkpt lat="44.84096" lon="-0.45174">
        <ele>79.45</ele>
        <time>2014-04-05T16:33:00Z</time>
      </trkpt>
      <trkpt lat="44.84091" lon="-0.45144">
        <ele>79.45</ele>
        <time>2014-04-05T16:33:10Z</time>
      </trkpt>
      <trkpt lat="44.84068" lon="-0.45132">
        <ele>78.97</ele>
        <time>2014-04-05T16:33:20Z</time>
      </trkpt>
      <trkpt lat="44.84045" lon="-0.45124">
        <ele>78</ele>
        <time>2014-04-05T16:33:29Z</time>
      </trkpt>
      <trkpt lat="44.84014" lon="-0.45114">
        <ele>78</ele>
        <time>2014-04-05T16:33:41Z</time>
      </trkpt>
      <trkpt lat="44.83991" lon="-0.45111">
        <ele>78</ele>
        <time>2014-04-05T16:33:51Z</time>
      </trkpt>
      <trkpt lat="44.83966" lon="-0.45107">
        <ele>77.52</ele>
        <time>2014-04-05T16:34:01Z</time>
      </trkpt>
      <trkpt lat="44.83945" lon="-0.45083">
        <ele>78.97</ele>
        <time>2014-04-05T16:34:17Z</time>
      </trkpt>
      <trkpt lat="44.83948" lon="-0.4505">
        <ele>79.45</ele>
        <time>2014-04-05T16:34:28Z</time>
      </trkpt>
      <trkpt lat="44.83949" lon="-0.45025">
        <ele>79.93</ele>
        <time>2014-04-05T16:34:36Z</time>
      </trkpt>
      <trkpt lat="44.83953" lon="-0.44998">
        <ele>80.41</ele>
        <time>2014-04-05T16:34:44Z</time>
      </trkpt>
      <trkpt lat="44.83957" lon="-0.4496">
        <ele>80.89</ele>
        <time>2014-04-05T16:34:55Z</time>
      </trkpt>
      <trkpt lat="44.83961" lon="-0.44924">
        <ele>81.37</ele>
        <time>2014-04-05T16:35:06Z</time>
      </trkpt>
      <trkpt lat="44.83966" lon="-0.44886">
        <ele>81.37</ele>
        <time>2014-04-05T16:35:18Z</time>
      </trkpt>
      <trkpt lat="44.83964" lon="-0.44856">
        <ele>81.85</ele>
        <time>2014-04-05T16:35:27Z</time>
      </trkpt>
      <trkpt lat="44.83958" lon="-0.44823">
        <ele>82.33</ele>
        <time>2014-04-05T16:35:38Z</time>
      </trkpt>
      <trkpt lat="44.83952" lon="-0.44797">
        <ele>82.81</ele>
        <time>2014-04-05T16:35:55Z</time>
      </trkpt>
      <trkpt lat="44.83952" lon="-0.44794">
        <ele>82.81</ele>
        <time>2014-04-05T16:36:10Z</time>
      </trkpt>
      <trkpt lat="44.83955" lon="-0.44829">
        <ele>82.81</ele>
        <time>2014-04-05T16:36:24Z</time>
      </trkpt>
      <trkpt lat="44.83962" lon="-0.44861">
        <ele>82.81</ele>
        <time>2014-04-05T16:36:35Z</time>
      </trkpt>
      <trkpt lat="44.83966" lon="-0.44899">
        <ele>82.33</ele>
        <time>2014-04-05T16:36:47Z</time>
      </trkpt>
      <trkpt lat="44.83959" lon="-0.44939">
        <ele>81.37</ele>
        <time>2014-04-05T16:36:59Z</time>
      </trkpt>
      <trkpt lat="44.83955" lon="-0.44969">
        <ele>81.37</ele>
        <time>2014-04-05T16:37:08Z</time>
      </trkpt>
      <trkpt lat="44.83951" lon="-0.45">
        <ele>80.89</ele>
        <time>2014-04-05T16:37:18Z</time>
      </trkpt>
      <trkpt lat="44.83948" lon="-0.45022">
        <ele>80.89</ele>
        <time>2014-04-05T16:37:25Z</time>
      </trkpt>
      <trkpt lat="44.83945" lon="-0.45053">
        <ele>80.41</ele>
        <time>2014-04-05T16:37:34Z</time>
      </trkpt>
      <trkpt lat="44.83941" lon="-0.45088">
        <ele>79.45</ele>
        <time>2014-04-05T16:37:45Z</time>
      </trkpt>
      <trkpt lat="44.83958" lon="-0.45106">
        <ele>78.97</ele>
        <time>2014-04-05T16:37:54Z</time>
      </trkpt>
      <trkpt lat="44.83968" lon="-0.45109">
        <ele>78.48</ele>
        <time>2014-04-05T16:37:58Z</time>
      </trkpt>
      <trkpt lat="44.83996" lon="-0.45121">
        <ele>78</ele>
        <time>2014-04-05T16:38:10Z</time>
      </trkpt>
      <trkpt lat="44.84035" lon="-0.45131">
        <ele>78.48</ele>
        <time>2014-04-05T16:38:26Z</time>
      </trkpt>
      <trkpt lat="44.8406" lon="-0.45136">
        <ele>78.48</ele>
        <time>2014-04-05T16:38:36Z</time>
      </trkpt>
      <trkpt lat="44.84083" lon="-0.4514">
        <ele>79.45</ele>
        <time>2014-04-05T16:38:46Z</time>
      </trkpt>
      <trkpt lat="44.84093" lon="-0.45156">
        <ele>79.93</ele>
        <time>2014-04-05T16:38:54Z</time>
      </trkpt>
      <trkpt lat="44.84094" lon="-0.45183">
        <ele>79.93</ele>
        <time>2014-04-05T16:39:06Z</time>
      </trkpt>
      <trkpt lat="44.84096" lon="-0.45207">
        <ele>79.93</ele>
        <time>2014-04-05T16:39:20Z</time>
      </trkpt>
      <trkpt lat="44.84097" lon="-0.45246">
        <ele>79.93</ele>
        <time>2014-04-05T16:39:37Z</time>
      </trkpt>
      <trkpt lat="44.84098" lon="-0.45278">
        <ele>80.41</ele>
        <time>2014-04-05T16:39:46Z</time>
      </trkpt>
      <trkpt lat="44.84101" lon="-0.45316">
        <ele>80.89</ele>
        <time>2014-04-05T16:39:57Z</time>
      </trkpt>
      <trkpt lat="44.84103" lon="-0.45363">
        <ele>81.37</ele>
        <time>2014-04-05T16:40:11Z</time>
      </trkpt>
      <trkpt lat="44.84106" lon="-0.45391">
        <ele>81.37</ele>
        <time>2014-04-05T16:40:19Z</time>
      </trkpt>
      <trkpt lat="44.8411" lon="-0.4542">
        <ele>81.85</ele>
        <time>2014-04-05T16:40:28Z</time>
      </trkpt>
      <trkpt lat="44.84117" lon="-0.45458">
        <ele>82.33</ele>
        <time>2014-04-05T16:40:40Z</time>
      </trkpt>
      <trkpt lat="44.84119" lon="-0.45466">
        <ele>82.33</ele>
        <time>2014-04-05T16:40:43Z</time>
      </trkpt>
      <trkpt lat="44.84132" lon="-0.4548">
        <ele>82.33</ele>
        <time>2014-04-05T16:40:50Z</time>
      </trkpt>
      <trkpt lat="44.84144" lon="-0.45481">
        <ele>81.85</ele>
        <time>2014-04-05T16:40:56Z</time>
      </trkpt>
      <trkpt lat="44.84166" lon="-0.45472">
        <ele>81.37</ele>
        <time>2014-04-05T16:41:06Z</time>
      </trkpt>
      <trkpt lat="44.84198" lon="-0.4545">
        <ele>80.41</ele>
        <time>2014-04-05T16:41:21Z</time>
      </trkpt>
      <trkpt lat="44.8423" lon="-0.45426">
        <ele>79.45</ele>
        <time>2014-04-05T16:41:37Z</time>
      </trkpt>
      <trkpt lat="44.84268" lon="-0.45418">
        <ele>78.48</ele>
        <time>2014-04-05T16:41:54Z</time>
      </trkpt>
      <trkpt lat="44.84291" lon="-0.45445">
        <ele>77.52</ele>
        <time>2014-04-05T16:42:08Z</time>
      </trkpt>
      <trkpt lat="44.84308" lon="-0.45463">
        <ele>76.56</ele>
        <time>2014-04-05T16:42:17Z</time>
      </trkpt>
      <trkpt lat="44.8433" lon="-0.45492">
        <ele>75.12</ele>
        <time>2014-04-05T16:42:29Z</time>
      </trkpt>
      <trkpt lat="44.84343" lon="-0.45513">
        <ele>74.16</ele>
        <time>2014-04-05T16:42:37Z</time>
      </trkpt>
      <trkpt lat="44.84355" lon="-0.4553">
        <ele>73.2</ele>
        <time>2014-04-05T16:42:44Z</time>
      </trkpt>
      <trkpt lat="44.84371" lon="-0.45555">
        <ele>71.76</ele>
        <time>2014-04-05T16:42:54Z</time>
      </trkpt>
      <trkpt lat="44.84386" lon="-0.45581">
        <ele>70.79</ele>
        <time>2014-04-05T16:43:03Z</time>
      </trkpt>
      <trkpt lat="44.84401" lon="-0.45609">
        <ele>69.83</ele>
        <time>2014-04-05T16:43:14Z</time>
      </trkpt>
      <trkpt lat="44.84417" lon="-0.45655">
        <ele>68.87</ele>
        <time>2014-04-05T16:43:28Z</time>
      </trkpt>
      <trkpt lat="44.84431" lon="-0.45692">
        <ele>68.39</ele>
        <time>2014-04-05T16:43:41Z</time>
      </trkpt>
      <trkpt lat="44.84446" lon="-0.45731">
        <ele>67.91</ele>
        <time>2014-04-05T16:43:53Z</time>
      </trkpt>
      <trkpt lat="44.8446" lon="-0.45758">
        <ele>67.43</ele>
        <time>2014-04-05T16:44:03Z</time>
      </trkpt>
      <trkpt lat="44.84473" lon="-0.45782">
        <ele>66.95</ele>
        <time>2014-04-05T16:44:12Z</time>
      </trkpt>
      <trkpt lat="44.84481" lon="-0.45808">
        <ele>65.99</ele>
        <time>2014-04-05T16:44:21Z</time>
      </trkpt>
      <trkpt lat="44.84503" lon="-0.45854">
        <ele>65.03</ele>
        <time>2014-04-05T16:44:38Z</time>
      </trkpt>
      <trkpt lat="44.84515" lon="-0.45875">
        <ele>64.55</ele>
        <time>2014-04-05T16:44:46Z</time>
      </trkpt>
      <trkpt lat="44.84531" lon="-0.45917">
        <ele>63.58</ele>
        <time>2014-04-05T16:45:01Z</time>
      </trkpt>
      <trkpt lat="44.84547" lon="-0.4597">
        <ele>63.1</ele>
        <time>2014-04-05T16:45:18Z</time>
      </trkpt>
      <trkpt lat="44.84554" lon="-0.46023">
        <ele>62.14</ele>
        <time>2014-04-05T16:45:34Z</time>
      </trkpt>
      <trkpt lat="44.84571" lon="-0.4609">
        <ele>60.22</ele>
        <time>2014-04-05T16:45:54Z</time>
      </trkpt>
      <trkpt lat="44.84591" lon="-0.46135">
        <ele>58.78</ele>
        <time>2014-04-05T16:46:09Z</time>
      </trkpt>
      <trkpt lat="44.84602" lon="-0.46168">
        <ele>58.3</ele>
        <time>2014-04-05T16:46:20Z</time>
      </trkpt>
      <trkpt lat="44.84609" lon="-0.46186">
        <ele>58.3</ele>
        <time>2014-04-05T16:46:27Z</time>
      </trkpt>
      <trkpt lat="44.84616" lon="-0.4621">
        <ele>58.3</ele>
        <time>2014-04-05T16:46:35Z</time>
      </trkpt>
      <trkpt lat="44.84621" lon="-0.46221">
        <ele>58.3</ele>
        <time>2014-04-05T16:46:39Z</time>
      </trkpt>
      <trkpt lat="44.8463" lon="-0.46227">
        <ele>58.3</ele>
        <time>2014-04-05T16:46:44Z</time>
      </trkpt>
      <trkpt lat="44.84644" lon="-0.4622">
        <ele>58.3</ele>
        <time>2014-04-05T16:46:51Z</time>
      </trkpt>
      <trkpt lat="44.8466" lon="-0.46237">
        <ele>58.78</ele>
        <time>2014-04-05T16:47:00Z</time>
      </trkpt>
      <trkpt lat="44.84674" lon="-0.46272">
        <ele>58.78</ele>
        <time>2014-04-05T16:47:13Z</time>
      </trkpt>
      <trkpt lat="44.84682" lon="-0.46272">
        <ele>58.78</ele>
        <time>2014-04-05T16:47:16Z</time>
      </trkpt>
      <trkpt lat="44.84711" lon="-0.46308">
        <ele>59.26</ele>
        <time>2014-04-05T16:47:32Z</time>
      </trkpt>
      <trkpt lat="44.84729" lon="-0.46333">
        <ele>59.26</ele>
        <time>2014-04-05T16:47:43Z</time>
      </trkpt>
      <trkpt lat="44.84755" lon="-0.46355">
        <ele>58.3</ele>
        <time>2014-04-05T16:47:57Z</time>
      </trkpt>
      <trkpt lat="44.84756" lon="-0.46409">
        <ele>56.86</ele>
        <time>2014-04-05T16:48:12Z</time>
      </trkpt>
      <trkpt lat="44.84757" lon="-0.46451">
        <ele>55.89</ele>
        <time>2014-04-05T16:48:29Z</time>
      </trkpt>
      <trkpt lat="44.84749" lon="-0.46469">
        <ele>55.89</ele>
        <time>2014-04-05T16:48:47Z</time>
      </trkpt>
      <trkpt lat="44.84738" lon="-0.46494">
        <ele>55.89</ele>
        <time>2014-04-05T16:49:01Z</time>
      </trkpt>
      <trkpt lat="44.84722" lon="-0.46517">
        <ele>55.89</ele>
        <time>2014-04-05T16:49:17Z</time>
      </trkpt>
      <trkpt lat="44.84713" lon="-0.46537">
        <ele>56.86</ele>
        <time>2014-04-05T16:49:34Z</time>
      </trkpt>
      <trkpt lat="44.84699" lon="-0.46561">
        <ele>57.34</ele>
        <time>2014-04-05T16:49:48Z</time>
      </trkpt>
      <trkpt lat="44.84677" lon="-0.46595">
        <ele>58.3</ele>
        <time>2014-04-05T16:50:02Z</time>
      </trkpt>
      <trkpt lat="44.84657" lon="-0.4663">
        <ele>59.74</ele>
        <time>2014-04-05T16:50:15Z</time>
      </trkpt>
      <trkpt lat="44.84641" lon="-0.46664">
        <ele>60.7</ele>
        <time>2014-04-05T16:50:28Z</time>
      </trkpt>
      <trkpt lat="44.84621" lon="-0.46686">
        <ele>61.66</ele>
        <time>2014-04-05T16:50:38Z</time>
      </trkpt>
      <trkpt lat="44.84586" lon="-0.46658">
        <ele>63.1</ele>
        <time>2014-04-05T16:50:54Z</time>
      </trkpt>
      <trkpt lat="44.84563" lon="-0.46625">
        <ele>64.07</ele>
        <time>2014-04-05T16:51:09Z</time>
      </trkpt>
      <trkpt lat="44.84545" lon="-0.46603">
        <ele>64.55</ele>
        <time>2014-04-05T16:51:20Z</time>
      </trkpt>
      <trkpt lat="44.84517" lon="-0.46553">
        <ele>64.55</ele>
        <time>2014-04-05T16:51:39Z</time>
      </trkpt>
      <trkpt lat="44.84502" lon="-0.46507">
        <ele>65.03</ele>
        <time>2014-04-05T16:51:54Z</time>
      </trkpt>
      <trkpt lat="44.84485" lon="-0.46495">
        <ele>65.51</ele>
        <time>2014-04-05T16:52:05Z</time>
      </trkpt>
      <trkpt lat="44.84466" lon="-0.46507">
        <ele>65.51</ele>
        <time>2014-04-05T16:52:14Z</time>
      </trkpt>
      <trkpt lat="44.84462" lon="-0.46509">
        <ele>65.51</ele>
        <time>2014-04-05T16:52:16Z</time>
      </trkpt>
      <trkpt lat="44.84442" lon="-0.46482">
        <ele>65.99</ele>
        <time>2014-04-05T16:52:30Z</time>
      </trkpt>
      <trkpt lat="44.84426" lon="-0.46475">
        <ele>66.47</ele>
        <time>2014-04-05T16:52:43Z</time>
      </trkpt>
      <trkpt lat="44.84424" lon="-0.46475">
        <ele>66.47</ele>
        <time>2014-04-05T16:52:45Z</time>
      </trkpt>
    </trkseg>
  </trk>
</gpx>